Time;durP1;ratioP1;P1;durP2;ratioP2;P2;SDS_P1;SDS_P2;PMS_P1;PMS_P2;Temp;Humidity;BMP_temperature;BMP_pressure;BME280_temperature;BME280_humidity;BME280_pressure;Samples;Min_cycle;Max_cycle;Signal;HPM_P1;HPM_P2
2023/12/04 00:00:46;;;;;;;;;;;;;;;8.97;50.59;101291.44;4941781;28;98878;-71
2023/12/04 00:03:12;;;;;;;;;;;;;;;8.94;50.85;101297.28;4938569;28;100010;-71
2023/12/04 00:05:37;;;;;;;;;;;;;;;8.93;51.08;101299.16;4927393;28;98259;-66
2023/12/04 00:08:04;;;;;;;;;;;;;;;8.91;50.62;101301.25;4905045;28;98204;-72
2023/12/04 00:10:30;;;;;;;;;;;;;;;8.88;50.56;101301.72;4918378;28;104360;-66
2023/12/04 00:12:56;;;;;;;;;;;;;;;8.86;50.83;101295.78;4954410;28;108410;-66
2023/12/04 00:15:22;;;;;;;;;;;;;;;8.86;51.06;101301.16;4955812;28;99382;-71
2023/12/04 00:17:48;;;;;;;;;;;;;;;8.83;51.06;101296.25;4941398;28;126510;-66
2023/12/04 00:20:14;;;;;;;;;;;;;;;8.82;51.17;101300.00;4924968;28;98441;-71
2023/12/04 00:22:40;;;;;;;;;;;;;;;8.80;50.62;101299.38;4943098;28;98005;-68
2023/12/04 00:25:07;;;;;;;;;;;;;;;8.78;51.30;101296.94;4940878;28;98518;-71
2023/12/04 00:27:33;;;;;;;;;;;;;;;8.77;50.63;101298.00;4926744;28;98112;-71
2023/12/04 00:29:59;;;;;;;;;;;;;;;8.74;50.84;101298.47;4922745;28;99605;-66
2023/12/04 00:32:25;;;;;;;;;;;;;;;8.74;50.61;101300.34;4941813;28;98902;-66
2023/12/04 00:34:51;;;;;;;;;;;;;;;8.72;50.79;101292.50;4940748;28;98478;-66
2023/12/04 00:37:17;;;;;;;;;;;;;;;8.71;51.13;101280.13;4942761;28;127182;-72
2023/12/04 00:39:43;;;;;;;;;;;;;;;8.70;50.45;101286.56;4962684;28;98090;-66
2023/12/04 00:42:09;;;;;;;;;;;;;;;8.69;51.47;101284.94;4943500;28;129360;-66
2023/12/04 00:44:35;;;;;;;;;;;;;;;8.67;50.48;101284.31;4944112;28;100079;-71
2023/12/04 00:47:01;;;;;;;;;;;;;;;8.67;51.16;101291.56;4944083;28;129745;-66
2023/12/04 00:49:27;;;;;;;;;;;;;;;8.65;50.88;101296.38;4956290;28;98109;-71
2023/12/04 00:51:53;;;;;;;;;;;;;;;8.64;50.90;101294.72;4943885;28;118742;-66
2023/12/04 00:54:19;;;;;;;;;;;;;;;8.63;50.47;101288.53;4935665;28;127328;-66
2023/12/04 00:56:45;;;;;;;;;;;;;;;8.61;50.72;101282.59;4942115;28;101109;-71
2023/12/04 00:59:11;;;;;;;;;;;;;;;8.59;51.14;101282.81;4941744;28;106440;-71
2023/12/04 01:01:37;;;;;;;;;;;;;;;8.58;51.13;101275.81;4938096;28;129420;-71
2023/12/04 01:04:03;;;;;;;;;;;;;;;8.57;50.73;101278.75;4957898;28;100297;-71
2023/12/04 01:06:29;;;;;;;;;;;;;;;8.56;51.28;101283.28;4940985;28;113627;-71
2023/12/04 01:08:55;;;;;;;;;;;;;;;8.55;51.08;101280.81;4941916;28;99821;-71
2023/12/04 01:11:21;;;;;;;;;;;;;;;8.53;51.08;101278.38;4940276;28;98186;-66
2023/12/04 01:13:48;;;;;;;;;;;;;;;8.53;50.36;101274.88;4925026;28;98192;-71
2023/12/04 01:16:14;;;;;;;;;;;;;;;8.50;50.68;101281.53;4944443;28;98154;-66
2023/12/04 01:18:43;;;;;;;;;;;;;;;8.50;51.15;101278.03;4942658;28;98461;-71
2023/12/04 01:21:09;;;;;;;;;;;;;;;8.48;51.04;101274.75;4921360;28;98778;-71
2023/12/04 01:23:38;;;;;;;;;;;;;;;8.48;50.62;101277.44;4926713;28;98130;-71
2023/12/04 01:26:04;;;;;;;;;;;;;;;8.46;51.00;101266.13;4940433;28;126861;-66
2023/12/04 01:28:30;;;;;;;;;;;;;;;8.45;51.16;101269.84;4944884;28;106794;-71
2023/12/04 01:30:56;;;;;;;;;;;;;;;8.45;50.32;101275.22;4930028;28;124985;-66
2023/12/04 01:33:23;;;;;;;;;;;;;;;8.42;50.64;101273.81;4945878;28;98270;-66
2023/12/04 01:35:49;;;;;;;;;;;;;;;8.42;50.16;101273.81;4927886;28;98891;-66
2023/12/04 01:38:14;;;;;;;;;;;;;;;8.41;51.21;101268.66;4923744;28;108835;-71
2023/12/04 01:40:41;;;;;;;;;;;;;;;8.39;50.89;101265.41;4944332;28;99418;-71
2023/12/04 01:43:07;;;;;;;;;;;;;;;8.40;51.13;101267.03;4940838;28;117415;-66
2023/12/04 01:45:33;;;;;;;;;;;;;;;8.36;51.00;101270.16;4959796;28;129449;-71
2023/12/04 01:47:59;;;;;;;;;;;;;;;8.37;50.89;101265.66;4944259;28;98737;-66
2023/12/04 01:50:25;;;;;;;;;;;;;;;8.35;50.88;101265.84;4946994;28;126973;-66
2023/12/04 01:52:52;;;;;;;;;;;;;;;8.33;50.22;101273.34;4926599;28;116810;-71
2023/12/04 01:55:17;;;;;;;;;;;;;;;8.32;50.59;101268.97;4927549;28;98368;-71
2023/12/04 01:57:43;;;;;;;;;;;;;;;8.31;50.57;101279.97;4943049;28;98659;-71
2023/12/04 02:00:11;;;;;;;;;;;;;;;8.29;50.62;101274.84;4938045;28;127480;-71
2023/12/04 02:02:42;;;;;;;;;;;;;;;8.28;50.51;101278.56;4941775;28;98064;-66
2023/12/04 02:05:09;;;;;;;;;;;;;;;8.27;50.68;101273.44;4946011;28;99056;-71
2023/12/04 02:07:37;;;;;;;;;;;;;;;8.25;50.36;101278.19;4949272;28;98487;-71
2023/12/04 02:10:04;;;;;;;;;;;;;;;8.23;51.14;101274.94;4944511;28;99407;-71
2023/12/04 02:12:30;;;;;;;;;;;;;;;8.23;50.78;101275.75;4924367;28;99221;-67
2023/12/04 02:14:56;;;;;;;;;;;;;;;8.19;50.41;101277.28;4940761;28;116055;-65
2023/12/04 02:17:22;;;;;;;;;;;;;;;8.19;50.34;101277.28;4927403;28;106689;-71
2023/12/04 02:19:48;;;;;;;;;;;;;;;8.16;50.67;101275.03;4927636;28;121840;-71
2023/12/04 02:22:14;;;;;;;;;;;;;;;8.16;50.83;101272.34;4938734;28;103412;-70
2023/12/04 02:24:40;;;;;;;;;;;;;;;8.14;50.22;101262.91;4921824;28;128669;-69
2023/12/04 02:27:17;;;;;;;;;;;;;;;8.12;50.73;101252.38;4942327;28;98162;-71
2023/12/04 02:29:52;;;;;;;;;;;;;;;8.11;50.51;101248.06;4921023;28;99530;-65
2023/12/04 02:32:19;;;;;;;;;;;;;;;8.08;50.38;101241.28;4939060;28;113305;-65
2023/12/04 02:34:46;;;;;;;;;;;;;;;8.07;50.52;101241.53;4935768;28;99089;-71
2023/12/04 02:37:11;;;;;;;;;;;;;;;8.06;50.76;101240.72;4937499;28;99704;-66
2023/12/04 02:39:37;;;;;;;;;;;;;;;8.03;50.79;101235.00;4938382;28;128030;-71
2023/12/04 02:42:04;;;;;;;;;;;;;;;8.04;50.22;101236.63;4941072;28;98294;-65
2023/12/04 02:44:30;;;;;;;;;;;;;;;8.01;50.55;101224.47;4936451;28;99040;-65
2023/12/04 02:46:56;;;;;;;;;;;;;;;8.00;50.75;101222.84;4952251;28;98200;-66
2023/12/04 02:49:22;;;;;;;;;;;;;;;7.99;50.47;101207.78;4921684;28;98760;-66
2023/12/04 02:51:48;;;;;;;;;;;;;;;7.98;50.57;101208.84;4921558;28;98158;-71
2023/12/04 02:54:14;;;;;;;;;;;;;;;7.97;50.58;101195.63;4920474;28;98263;-66
2023/12/04 02:56:40;;;;;;;;;;;;;;;7.96;50.54;101199.38;4933282;28;117951;-65
2023/12/04 02:59:06;;;;;;;;;;;;;;;7.95;50.17;101198.56;4939510;28;99456;-66
2023/12/04 03:01:32;;;;;;;;;;;;;;;7.94;51.04;101202.31;4893216;28;98113;-66
2023/12/04 03:03:58;;;;;;;;;;;;;;;7.92;50.85;101209.75;4908481;28;126130;-71
2023/12/04 03:06:24;;;;;;;;;;;;;;;7.93;50.88;101194.47;4943651;28;120155;-66
2023/12/04 03:08:50;;;;;;;;;;;;;;;7.92;50.13;101188.28;4904513;28;100631;-71
2023/12/04 03:11:16;;;;;;;;;;;;;;;7.92;50.45;101185.59;4890887;28;99151;-66
2023/12/04 03:13:42;;;;;;;;;;;;;;;7.90;50.30;101176.97;4905844;28;98992;-66
2023/12/04 03:16:16;;;;;;;;;;;;;;;7.90;50.63;101184.19;4919482;28;98300;-65
2023/12/04 03:18:45;;;;;;;;;;;;;;;7.88;50.33;101176.38;4916670;28;120631;-66
2023/12/04 03:21:11;;;;;;;;;;;;;;;7.87;50.77;101174.75;4887225;28;98353;-71
2023/12/04 03:23:37;;;;;;;;;;;;;;;7.86;50.53;101168.56;4885796;28;98206;-66
2023/12/04 03:26:03;;;;;;;;;;;;;;;7.85;51.05;101156.16;4885011;28;98202;-71
2023/12/04 03:28:29;;;;;;;;;;;;;;;7.84;50.95;101149.16;4890730;28;99610;-65
2023/12/04 03:30:55;;;;;;;;;;;;;;;7.84;50.50;101154.53;4922107;28;128694;-71
2023/12/04 03:33:21;;;;;;;;;;;;;;;7.84;50.91;101145.66;4918545;28;124702;-71
2023/12/04 03:35:47;;;;;;;;;;;;;;;7.81;50.68;101144.25;4903109;28;118607;-66
2023/12/04 03:38:13;;;;;;;;;;;;;;;7.84;50.96;101151.03;4893383;28;98416;-66
2023/12/04 03:40:39;;;;;;;;;;;;;;;7.83;50.27;101146.72;4905081;28;98109;-71
2023/12/04 03:43:05;;;;;;;;;;;;;;;7.82;50.71;101145.06;4903587;28;98190;-71
2023/12/04 03:45:31;;;;;;;;;;;;;;;7.82;50.27;101153.97;4902156;28;118638;-66
2023/12/04 03:47:57;;;;;;;;;;;;;;;7.82;50.90;101153.97;4918905;28;119472;-66
2023/12/04 03:50:23;;;;;;;;;;;;;;;7.82;50.73;101158.50;4920886;28;106529;-72
2023/12/04 03:52:49;;;;;;;;;;;;;;;7.82;50.53;101162.03;4918129;28;128514;-66
2023/12/04 03:55:15;;;;;;;;;;;;;;;7.81;50.69;101155.00;4919386;28;118419;-71
2023/12/04 03:57:41;;;;;;;;;;;;;;;7.82;50.22;101162.03;4919507;28;99650;-66
2023/12/04 04:00:09;;;;;;;;;;;;;;;7.82;50.28;101145.06;4902885;28;98262;-66
2023/12/04 04:02:35;;;;;;;;;;;;;;;7.83;50.63;101146.72;4920821;28;99780;-67
2023/12/04 04:05:01;;;;;;;;;;;;;;;7.83;50.64;101138.69;4921174;28;116644;-71
2023/12/04 04:07:27;;;;;;;;;;;;;;;7.82;50.39;101137.88;4900733;28;97997;-66
2023/12/04 04:09:53;;;;;;;;;;;;;;;7.83;50.71;101138.69;4924353;28;128721;-66
2023/12/04 04:12:19;;;;;;;;;;;;;;;7.84;50.49;101134.94;4907559;28;99591;-71
2023/12/04 04:14:45;;;;;;;;;;;;;;;7.84;50.64;101133.06;4923767;28;98173;-66
2023/12/04 04:17:11;;;;;;;;;;;;;;;7.84;50.18;101133.06;4923129;28;116470;-71
2023/12/04 04:19:37;;;;;;;;;;;;;;;7.83;51.00;101125.25;4909948;28;98458;-72
2023/12/04 04:22:03;;;;;;;;;;;;;;;7.84;50.28;101122.31;4888394;28;99426;-71
2023/12/04 04:24:29;;;;;;;;;;;;;;;7.85;50.60;101117.78;4908184;28;99591;-66
2023/12/04 04:26:55;;;;;;;;;;;;;;;7.84;50.41;101122.31;4887828;28;128027;-71
2023/12/04 04:29:21;;;;;;;;;;;;;;;7.86;50.28;101132.84;4905200;28;98127;-67
2023/12/04 04:31:47;;;;;;;;;;;;;;;7.86;50.12;101132.84;4906252;28;122387;-71
2023/12/04 04:34:13;;;;;;;;;;;;;;;7.85;50.17;101123.97;4920099;28;98086;-71
2023/12/04 04:36:38;;;;;;;;;;;;;;;7.85;50.24;101128.50;4906129;28;127420;-71
2023/12/04 04:39:05;;;;;;;;;;;;;;;7.83;50.43;101134.13;4923580;28;128782;-71
2023/12/04 04:41:31;;;;;;;;;;;;;;;7.85;50.22;101131.19;4889846;28;98839;-66
2023/12/04 04:43:57;;;;;;;;;;;;;;;7.84;50.59;101133.06;4925794;28;98562;-66
2023/12/04 04:46:25;;;;;;;;;;;;;;;7.84;50.62;101127.69;4902412;28;99372;-71
2023/12/04 04:48:51;;;;;;;;;;;;;;;7.83;50.54;101125.25;4896213;28;98254;-71
2023/12/04 04:51:17;;;;;;;;;;;;;;;7.83;50.54;101126.06;4905664;28;107371;-66
2023/12/04 04:53:43;;;;;;;;;;;;;;;7.81;50.64;101122.78;4923024;28;117101;-66
2023/12/04 04:56:09;;;;;;;;;;;;;;;7.81;50.70;101117.41;4904897;28;97910;-66
2023/12/04 04:58:35;;;;;;;;;;;;;;;7.79;50.79;101118.72;4909868;28;99506;-66
2023/12/04 05:01:01;;;;;;;;;;;;;;;7.78;49.85;101115.22;4910214;28;98288;-66
2023/12/04 05:03:27;;;;;;;;;;;;;;;7.77;50.25;101107.38;4903452;28;100659;-71
2023/12/04 05:05:53;;;;;;;;;;;;;;;7.76;50.30;101103.06;4905059;28;127957;-65
2023/12/04 05:08:19;;;;;;;;;;;;;;;7.76;50.25;101108.44;4900953;28;114867;-65
2023/12/04 05:10:45;;;;;;;;;;;;;;;7.74;50.19;101103.31;4906669;28;103605;-71
2023/12/04 05:13:11;;;;;;;;;;;;;;;7.74;50.28;101111.38;4889759;28;116398;-70
2023/12/04 05:15:37;;;;;;;;;;;;;;;7.73;50.20;101115.09;4903877;28;112228;-65
2023/12/04 05:18:03;;;;;;;;;;;;;;;7.72;50.61;101107.28;4904069;28;98171;-65
2023/12/04 05:20:29;;;;;;;;;;;;;;;7.71;50.31;101103.78;4887538;28;98011;-71
2023/12/04 05:22:56;;;;;;;;;;;;;;;7.70;50.41;101104.81;4892753;28;98194;-71
2023/12/04 05:25:22;;;;;;;;;;;;;;;7.70;50.33;101106.69;4902512;28;106783;-65
2023/12/04 05:27:48;;;;;;;;;;;;;;;7.69;50.30;101108.53;4915909;28;98720;-65
2023/12/04 05:30:14;;;;;;;;;;;;;;;7.69;50.37;101102.38;4865459;28;127499;-66
2023/12/04 05:32:40;;;;;;;;;;;;;;;7.68;50.23;101098.88;4909484;28;99402;-65
2023/12/04 05:35:07;;;;;;;;;;;;;;;7.69;50.18;101097.00;4892300;28;98120;-70
2023/12/04 05:37:33;;;;;;;;;;;;;;;7.70;50.32;101101.31;4888949;28;98015;-65
2023/12/04 05:39:59;;;;;;;;;;;;;;;7.70;50.29;101099.44;4917713;28;98085;-70
2023/12/04 05:42:25;;;;;;;;;;;;;;;7.72;50.74;101099.22;4903640;28;100983;-65
2023/12/04 05:44:55;;;;;;;;;;;;;;;7.72;50.24;101091.19;4903353;28;98025;-65
2023/12/04 05:47:21;;;;;;;;;;;;;;;7.74;50.34;101089.06;4884101;28;98708;-71
2023/12/04 05:49:47;;;;;;;;;;;;;;;7.75;50.13;101088.03;4885422;28;99743;-66
2023/12/04 05:52:13;;;;;;;;;;;;;;;7.75;50.53;101080.78;4899549;28;105413;-71
2023/12/04 05:54:39;;;;;;;;;;;;;;;7.78;50.38;101079.50;4888391;28;104569;-65
2023/12/04 05:57:05;;;;;;;;;;;;;;;7.79;49.89;101068.53;4902433;28;99261;-65
2023/12/04 05:59:31;;;;;;;;;;;;;;;7.80;50.32;101062.13;4915190;28;99295;-66
2023/12/04 06:01:57;;;;;;;;;;;;;;;7.81;50.15;101055.69;4899764;28;99058;-65
2023/12/04 06:04:23;;;;;;;;;;;;;;;7.83;50.35;101050.09;4888705;28;105082;-70
2023/12/04 06:06:49;;;;;;;;;;;;;;;7.84;50.51;101039.13;4885802;28;99631;-71
2023/12/04 06:09:16;;;;;;;;;;;;;;;7.86;50.19;101030.84;4882629;28;126857;-70
2023/12/04 06:11:42;;;;;;;;;;;;;;;7.87;50.64;101030.59;4901728;28;98379;-71
2023/12/04 06:14:08;;;;;;;;;;;;;;;7.88;50.41;101018.81;4898064;28;99681;-65
2023/12/04 06:16:34;;;;;;;;;;;;;;;7.90;49.82;101023.09;4904635;28;99547;-70
2023/12/04 06:19:00;;;;;;;;;;;;;;;7.92;50.30;101021.03;4921273;28;112796;-65
2023/12/04 06:21:26;;;;;;;;;;;;;;;7.94;50.61;101018.91;4888853;28;98497;-71
2023/12/04 06:23:52;;;;;;;;;;;;;;;7.94;50.61;101021.59;4909237;28;98412;-65
2023/12/04 06:26:19;;;;;;;;;;;;;;;7.96;50.06;101014.13;4905553;28;110318;-70
2023/12/04 06:28:46;;;;;;;;;;;;;;;7.97;50.40;101021.13;4899139;28;98114;-71
2023/12/04 06:31:12;;;;;;;;;;;;;;;7.99;50.40;101016.34;4904565;28;98352;-65
2023/12/04 06:33:38;;;;;;;;;;;;;;;8.01;50.16;101019.59;4900713;28;116779;-65
2023/12/04 06:36:05;;;;;;;;;;;;;;;8.03;50.13;101017.50;4907509;28;118935;-70
2023/12/04 06:38:33;;;;;;;;;;;;;;;8.04;50.40;101019.94;4921207;28;111168;-71
2023/12/04 06:41:00;;;;;;;;;;;;;;;8.05;50.00;101013.50;4886299;28;98231;-71
2023/12/04 06:43:26;;;;;;;;;;;;;;;8.08;50.28;101013.03;4890339;28;114493;-70
2023/12/04 06:45:52;;;;;;;;;;;;;;;8.11;49.88;101003.69;4902579;28;117681;-71
2023/12/04 06:48:18;;;;;;;;;;;;;;;8.14;50.32;101003.22;4898821;28;97926;-71
2023/12/04 06:50:44;;;;;;;;;;;;;;;8.16;50.69;101001.09;4904291;28;103888;-65
2023/12/04 06:53:10;;;;;;;;;;;;;;;8.19;49.82;101002.53;4903583;28;117962;-71
2023/12/04 06:55:36;;;;;;;;;;;;;;;8.22;50.34;101002.03;4886718;28;98270;-71
2023/12/04 06:58:02;;;;;;;;;;;;;;;8.24;50.74;101010.66;4902278;28;98357;-71
2023/12/04 07:00:28;;;;;;;;;;;;;;;8.25;50.28;100997.00;4900700;28;114242;-65
2023/12/04 07:02:54;;;;;;;;;;;;;;;8.30;50.25;101007.03;4898135;28;127768;-71
2023/12/04 07:05:21;;;;;;;;;;;;;;;8.33;50.50;101011.91;4922015;28;98818;-66
2023/12/04 07:07:47;;;;;;;;;;;;;;;8.35;50.21;101009.81;4918039;28;98263;-70
2023/12/04 07:10:14;;;;;;;;;;;;;;;8.37;50.37;101018.50;4920899;28;102845;-71
2023/12/04 07:12:41;;;;;;;;;;;;;;;8.40;50.11;101025.25;4907387;28;99702;-65
2023/12/04 07:15:08;;;;;;;;;;;;;;;8.44;50.24;101027.22;4901542;28;99666;-71
2023/12/04 07:17:35;;;;;;;;;;;;;;;8.46;50.41;101018.94;4903377;28;102487;-65
2023/12/04 07:20:01;;;;;;;;;;;;;;;8.50;50.04;101020.06;4917799;28;98222;-65
2023/12/04 07:22:27;;;;;;;;;;;;;;;8.54;49.97;101013.16;4887328;28;109223;-65
2023/12/04 07:24:53;;;;;;;;;;;;;;;8.57;50.17;101012.69;4901430;28;109209;-67
2023/12/04 07:27:19;;;;;;;;;;;;;;;8.62;50.28;101012.78;4902675;28;120831;-65
2023/12/04 07:29:45;;;;;;;;;;;;;;;8.66;50.00;101010.41;4917158;28;98339;-65
2023/12/04 07:32:11;;;;;;;;;;;;;;;8.71;50.53;101011.31;4921122;28;100003;-66
2023/12/04 07:34:37;;;;;;;;;;;;;;;8.77;49.82;101012.25;4909061;28;98041;-71
2023/12/04 07:37:07;;;;;;;;;;;;;;;8.80;49.86;101009.88;4908184;28;107852;-71
2023/12/04 07:39:33;;;;;;;;;;;;;;;8.85;50.36;101001.09;4919980;28;98155;-71
2023/12/04 07:41:59;;;;;;;;;;;;;;;8.91;50.07;101007.34;4907192;28;107419;-71
2023/12/04 07:44:25;;;;;;;;;;;;;;;8.96;49.78;100994.00;4928681;28;126862;-66
2023/12/04 07:46:51;;;;;;;;;;;;;;;9.01;49.78;100997.59;4891074;28;98315;-65
2023/12/04 07:49:17;;;;;;;;;;;;;;;9.07;49.42;101009.25;4929061;28;98863;-71
2023/12/04 07:51:43;;;;;;;;;;;;;;;9.14;50.08;100999.13;4925702;28;98283;-66
2023/12/04 07:54:09;;;;;;;;;;;;;;;9.18;50.00;100989.53;4920128;28;99765;-66
2023/12/04 07:56:34;;;;;;;;;;;;;;;9.21;49.76;100997.09;4919647;28;126781;-71
2023/12/04 07:59:00;;;;;;;;;;;;;;;9.25;49.34;100992.88;4907548;28;117780;-66
2023/12/04 08:01:26;;;;;;;;;;;;;;;9.28;50.25;100996.94;4890405;28;98447;-71
2023/12/04 08:03:52;;;;;;;;;;;;;;;9.31;49.71;100999.97;4890401;28;98602;-66
2023/12/04 08:06:19;;;;;;;;;;;;;;;9.34;49.93;101002.13;4889913;28;107681;-71
2023/12/04 08:08:45;;;;;;;;;;;;;;;9.38;49.82;100990.88;4924037;28;99444;-66
2023/12/04 08:11:11;;;;;;;;;;;;;;;9.41;49.80;100977.75;4907448;28;105481;-66
2023/12/04 08:13:39;;;;;;;;;;;;;;;9.46;49.86;100982.41;4889786;28;99926;-71
2023/12/04 08:16:05;;;;;;;;;;;;;;;9.49;49.72;100969.25;4886402;28;98258;-66
2023/12/04 08:18:31;;;;;;;;;;;;;;;9.53;49.83;100975.78;4892269;28;102109;-66
2023/12/04 08:21:00;;;;;;;;;;;;;;;9.59;50.02;100968.59;4901147;28;126082;-71
2023/12/04 08:23:26;;;;;;;;;;;;;;;9.66;49.92;100968.41;4893292;28;98899;-71
2023/12/04 08:25:52;;;;;;;;;;;;;;;9.72;49.69;100965.53;4890183;28;130803;-66
2023/12/04 08:28:18;;;;;;;;;;;;;;;9.79;49.42;100959.97;4894306;28;110116;-66
2023/12/04 08:30:44;;;;;;;;;;;;;;;9.86;49.59;100965.16;4887113;28;111729;-66
2023/12/04 08:33:10;;;;;;;;;;;;;;;9.91;50.16;100949.91;4906085;28;103148;-66
2023/12/04 08:35:36;;;;;;;;;;;;;;;9.97;49.44;100954.25;4906244;28;128826;-66
2023/12/04 08:38:02;;;;;;;;;;;;;;;10.01;49.85;100954.56;4891226;28;97967;-66
2023/12/04 08:40:28;;;;;;;;;;;;;;;10.06;50.02;100963.56;4906616;28;106376;-71
2023/12/04 08:42:54;;;;;;;;;;;;;;;10.09;50.08;100962.22;4918231;28;98223;-66
2023/12/04 08:45:20;;;;;;;;;;;;;;;10.13;49.82;100963.34;4868751;28;98030;-66
2023/12/04 08:47:46;;;;;;;;;;;;;;;10.18;49.37;100968.81;4919502;28;117136;-71
2023/12/04 08:50:12;;;;;;;;;;;;;;;10.22;49.62;100971.81;4900695;28;98880;-71
2023/12/04 08:52:41;;;;;;;;;;;;;;;10.26;49.73;100981.84;4894033;28;98221;-66
2023/12/04 08:55:07;;;;;;;;;;;;;;;10.30;49.40;100980.28;4887829;28;97941;-66
2023/12/04 08:57:33;;;;;;;;;;;;;;;10.36;49.72;100972.25;4887266;28;115041;-66
2023/12/04 08:59:59;;;;;;;;;;;;;;;10.41;49.81;100967.72;4888948;28;132493;-66
2023/12/04 09:02:25;;;;;;;;;;;;;;;10.47;49.63;100968.59;4902493;28;99311;-71
2023/12/04 09:04:51;;;;;;;;;;;;;;;10.54;49.73;100966.50;4911116;28;98279;-71
2023/12/04 09:07:17;;;;;;;;;;;;;;;10.62;49.76;100963.34;4919041;28;97921;-71
2023/12/04 09:09:43;;;;;;;;;;;;;;;10.71;49.72;100966.38;4911997;28;105490;-72
2023/12/04 09:12:10;;;;;;;;;;;;;;;10.77;49.45;100965.38;4917876;28;98611;-71
2023/12/04 09:14:36;;;;;;;;;;;;;;;10.84;49.49;100971.34;4913268;28;98223;-71
2023/12/04 09:17:03;;;;;;;;;;;;;;;10.89;49.50;100957.94;4916319;28;104361;-66
2023/12/04 09:19:29;;;;;;;;;;;;;;;10.94;49.71;100960.66;4899529;28;98639;-72
2023/12/04 09:21:56;;;;;;;;;;;;;;;10.99;49.66;100957.19;4918744;28;98561;-66
2023/12/04 09:24:23;;;;;;;;;;;;;;;11.06;49.60;100965.88;4924350;28;98263;-66
2023/12/04 09:26:49;;;;;;;;;;;;;;;11.12;49.46;100964.84;4909458;28;98108;-72
2023/12/04 09:29:16;;;;;;;;;;;;;;;11.18;49.32;100958.41;4906890;28;118177;-71
2023/12/04 09:31:42;;;;;;;;;;;;;;;11.26;49.53;100962.50;4911179;28;99181;-66
2023/12/04 09:34:08;;;;;;;;;;;;;;;11.31;49.60;100965.22;4910997;28;98030;-72
2023/12/04 09:36:34;;;;;;;;;;;;;;;11.40;49.47;100962.88;4921779;28;98446;-66
2023/12/04 09:39:01;;;;;;;;;;;;;;;11.48;49.42;100962.38;4923616;28;99493;-72
2023/12/04 09:41:26;;;;;;;;;;;;;;;11.57;49.42;100965.41;4907331;28;98090;-71
2023/12/04 09:43:52;;;;;;;;;;;;;;;11.65;49.36;100949.50;4890274;28;104283;-67
2023/12/04 09:46:18;;;;;;;;;;;;;;;11.75;49.32;100948.72;4920994;28;108008;-71
2023/12/04 09:48:44;;;;;;;;;;;;;;;11.87;49.36;100945.84;4905107;28;98100;-66
2023/12/04 09:51:10;;;;;;;;;;;;;;;11.98;49.03;100951.03;4905232;28;99728;-71
2023/12/04 09:53:37;;;;;;;;;;;;;;;12.13;49.06;100938.66;4889717;28;98122;-66
2023/12/04 09:56:07;;;;;;;;;;;;;;;12.24;48.97;100930.31;4889829;28;98117;-66
2023/12/04 09:58:32;;;;;;;;;;;;;;;12.39;48.82;100937.63;4905292;28;110669;-71
2023/12/04 10:00:59;;;;;;;;;;;;;;;12.53;48.86;100929.78;4921038;28;129087;-72
2023/12/04 10:03:25;;;;;;;;;;;;;;;12.65;48.93;100918.72;4908699;28;115916;-66
2023/12/04 10:05:53;;;;;;;;;;;;;;;12.73;49.06;100920.88;4893174;28;98600;-66
2023/12/04 10:08:19;;;;;;;;;;;;;;;12.81;49.11;100917.66;4924183;28;99651;-66
2023/12/04 10:10:45;;;;;;;;;;;;;;;12.87;49.17;100908.44;4917311;28;123516;-70
2023/12/04 10:13:11;;;;;;;;;;;;;;;12.93;48.85;100911.94;4922375;28;106751;-66
2023/12/04 10:16:04;;;;;;;;;;;;;;;12.97;48.89;100910.34;4891431;28;100500;-66
2023/12/04 10:18:33;;;;;;;;;;;;;;;13.01;48.99;100904.13;4904691;28;126488;-70
2023/12/04 10:20:59;;;;;;;;;;;;;;;13.02;48.95;100896.81;4908001;28;99978;-66
2023/12/04 10:23:44;;;;;;;;;;;;;;;13.03;49.07;100896.50;4904654;28;99747;-66
2023/12/04 10:26:14;;;;;;;;;;;;;;;13.03;49.39;100901.13;4903137;28;98066;-66
2023/12/04 10:28:40;;;;;;;;;;;;;;;13.01;49.38;100896.00;4891725;28;98268;-67
2023/12/04 10:31:06;;;;;;;;;;;;;;;13.02;49.46;100896.81;4906983;28;102061;-67
2023/12/04 10:33:32;;;;;;;;;;;;;;;13.05;49.39;100895.44;4921061;28;99362;-67
2023/12/04 10:35:58;;;;;;;;;;;;;;;13.07;49.07;100888.66;4905958;28;99420;-71
2023/12/04 10:38:26;;;;;;;;;;;;;;;13.11;49.20;100888.94;4883706;28;127933;-67
2023/12/04 10:40:53;;;;;;;;;;;;;;;13.15;49.02;100881.88;4890523;28;97908;-67
2023/12/04 10:43:20;;;;;;;;;;;;;;;13.19;49.00;100875.66;4906613;28;99642;-71
2023/12/04 10:45:47;;;;;;;;;;;;;;;13.20;49.39;100869.16;4895350;28;99431;-67
2023/12/04 10:48:13;;;;;;;;;;;;;;;13.22;49.27;100864.28;4910024;28;98319;-67
2023/12/04 10:50:47;;;;;;;;;;;;;;;13.23;49.58;100862.41;4893217;28;98634;-71
2023/12/04 10:53:13;;;;;;;;;;;;;;;13.24;49.27;100854.03;4906926;28;98042;-72
2023/12/04 10:55:40;;;;;;;;;;;;;;;13.25;49.52;100855.63;4887355;28;98409;-67
2023/12/04 10:58:11;;;;;;;;;;;;;;;13.27;49.37;100849.94;4900458;28;99125;-72
2023/12/04 11:00:40;;;;;;;;;;;;;;;13.27;49.15;100844.53;4881046;28;100332;-67
2023/12/04 11:03:10;;;;;;;;;;;;;;;13.26;49.35;100848.31;4884431;28;120570;-71
2023/12/04 11:05:40;;;;;;;;;;;;;;;13.27;49.25;100852.66;4888478;28;98081;-71
2023/12/04 11:08:07;;;;;;;;;;;;;;;13.26;49.22;100842.91;4906384;28;102065;-67
2023/12/04 11:10:34;;;;;;;;;;;;;;;13.26;49.31;100841.00;4912469;28;98470;-67
2023/12/04 11:13:28;;;;;;;;;;;;;;;13.28;49.60;100843.44;4904396;28;98344;-67
2023/12/04 11:15:55;;;;;;;;;;;;;;;13.31;49.41;100837.47;4900549;28;98203;-67
2023/12/04 11:18:22;;;;;;;;;;;;;;;13.35;49.22;100838.53;4888375;28;109186;-67
2023/12/04 11:20:56;;;;;;;;;;;;;;;13.36;49.55;100836.63;4899720;28;108064;-71
2023/12/04 11:23:23;;;;;;;;;;;;;;;13.35;49.44;100832.31;4899568;28;112684;-67
2023/12/04 11:25:49;;;;;;;;;;;;;;;13.35;49.68;100825.00;4905320;28;98449;-71
2023/12/04 11:28:16;;;;;;;;;;;;;;;13.35;49.32;100829.59;4906282;28;99610;-67
2023/12/04 11:30:42;;;;;;;;;;;;;;;13.36;49.74;100826.63;4870235;28;99747;-68
2023/12/04 11:33:08;;;;;;;;;;;;;;;13.36;49.32;100823.94;4888685;28;111821;-67
2023/12/04 11:35:34;;;;;;;;;;;;;;;13.35;49.50;100825.00;4895876;28;98325;-71
2023/12/04 11:38:00;;;;;;;;;;;;;;;13.34;49.77;100819.88;4870678;28;99726;-67
2023/12/04 11:40:27;;;;;;;;;;;;;;;13.36;49.63;100809.56;4909360;28;99091;-68
2023/12/04 11:42:53;;;;;;;;;;;;;;;13.35;49.37;100803.34;4902218;28;98185;-71
2023/12/04 11:45:22;;;;;;;;;;;;;;;13.34;49.62;100795.50;4901806;28;98201;-67
2023/12/04 11:47:58;;;;;;;;;;;;;;;13.28;49.67;100813.66;4865267;28;99957;-67
2023/12/04 11:50:27;;;;;;;;;;;;;;;13.22;49.49;100807.44;4885157;28;98667;-68
2023/12/04 11:52:53;;;;;;;;;;;;;;;13.17;49.65;100799.34;4902277;28;97854;-71
2023/12/04 11:55:23;;;;;;;;;;;;;;;13.14;49.77;100794.47;4903111;28;98171;-71
2023/12/04 11:57:54;;;;;;;;;;;;;;;13.09;49.77;100785.56;4886077;28;98600;-72
2023/12/04 12:00:22;;;;;;;;;;;;;;;13.06;49.60;100778.00;4901101;28;98167;-71
2023/12/04 12:02:53;;;;;;;;;;;;;;;13.02;49.67;100778.53;4902944;28;98199;-67
2023/12/04 12:05:23;;;;;;;;;;;;;;;12.99;50.06;100773.69;4918536;28;98567;-71
2023/12/04 12:07:49;;;;;;;;;;;;;;;12.97;49.68;100773.16;4904890;28;99264;-71
2023/12/04 12:10:16;;;;;;;;;;;;;;;12.96;49.92;100759.88;4867285;28;98106;-71
2023/12/04 12:12:43;;;;;;;;;;;;;;;12.93;49.70;100755.84;4887175;28;106343;-71
2023/12/04 12:15:10;;;;;;;;;;;;;;;12.94;49.70;100753.94;4905647;28;97990;-67
2023/12/04 12:17:38;;;;;;;;;;;;;;;12.92;49.69;100748.81;4919118;28;97974;-70
2023/12/04 12:20:06;;;;;;;;;;;;;;;12.92;50.05;100734.47;4873305;28;100053;-66
2023/12/04 12:22:33;;;;;;;;;;;;;;;12.91;49.82;100724.75;4902479;28;98385;-71
2023/12/04 12:25:00;;;;;;;;;;;;;;;12.90;49.74;100725.84;4907161;28;98058;-67
2023/12/04 12:27:26;;;;;;;;;;;;;;;12.90;50.04;100721.22;4923899;28;98427;-67
2023/12/04 12:29:52;;;;;;;;;;;;;;;12.93;50.15;100715.28;4873209;28;98445;-71
2023/12/04 12:32:18;;;;;;;;;;;;;;;12.96;49.71;100711.97;4916957;28;123373;-67
2023/12/04 12:34:44;;;;;;;;;;;;;;;12.99;49.96;100716.84;4906456;28;118142;-67
2023/12/04 12:37:10;;;;;;;;;;;;;;;13.02;49.81;100710.88;4906025;28;127675;-71